sensor_id;sensor_type;location;lat;lon;timestamp;P1;durP1;ratioP1;P2;durP2;ratioP2
26756;SDS011;23848;49.798;10.228;2024-02-26T00:02:27;5.43;;;2.53;;
26756;SDS011;23848;49.798;10.228;2024-02-26T00:04:55;7.05;;;3.35;;
26756;SDS011;23848;49.798;10.228;2024-02-26T00:07:23;5.18;;;2.90;;
26756;SDS011;23848;49.798;10.228;2024-02-26T00:09:52;5.45;;;2.88;;
26756;SDS011;23848;49.798;10.228;2024-02-26T00:12:20;5.65;;;2.78;;
26756;SDS011;23848;49.798;10.228;2024-02-26T00:14:50;5.38;;;2.38;;
26756;SDS011;23848;49.798;10.228;2024-02-26T00:17:20;4.75;;;2.90;;
26756;SDS011;23848;49.798;10.228;2024-02-26T00:19:48;7.57;;;3.55;;
26756;SDS011;23848;49.798;10.228;2024-02-26T00:22:15;6.00;;;3.85;;
26756;SDS011;23848;49.798;10.228;2024-02-26T00:24:45;8.45;;;5.13;;
26756;SDS011;23848;49.798;10.228;2024-02-26T00:27:17;6.78;;;4.20;;
26756;SDS011;23848;49.798;10.228;2024-02-26T00:29:46;6.28;;;3.78;;
26756;SDS011;23848;49.798;10.228;2024-02-26T00:32:15;6.63;;;4.15;;
26756;SDS011;23848;49.798;10.228;2024-02-26T00:34:46;5.47;;;3.22;;
26756;SDS011;23848;49.798;10.228;2024-02-26T00:37:15;6.90;;;3.33;;
26756;SDS011;23848;49.798;10.228;2024-02-26T00:39:43;5.20;;;2.45;;
26756;SDS011;23848;49.798;10.228;2024-02-26T00:42:13;5.35;;;2.42;;
26756;SDS011;23848;49.798;10.228;2024-02-26T00:44:41;4.85;;;2.70;;
26756;SDS011;23848;49.798;10.228;2024-02-26T00:47:09;5.40;;;2.50;;
26756;SDS011;23848;49.798;10.228;2024-02-26T00:49:39;4.03;;;2.15;;
26756;SDS011;23848;49.798;10.228;2024-02-26T00:52:08;4.30;;;2.47;;
26756;SDS011;23848;49.798;10.228;2024-02-26T00:54:36;4.25;;;2.60;;
26756;SDS011;23848;49.798;10.228;2024-02-26T00:57:04;4.25;;;2.53;;
26756;SDS011;23848;49.798;10.228;2024-02-26T00:59:33;4.93;;;2.65;;
26756;SDS011;23848;49.798;10.228;2024-02-26T01:02:01;4.03;;;2.25;;
26756;SDS011;23848;49.798;10.228;2024-02-26T01:04:31;4.45;;;2.55;;
26756;SDS011;23848;49.798;10.228;2024-02-26T01:07:03;4.82;;;2.60;;
26756;SDS011;23848;49.798;10.228;2024-02-26T01:09:32;4.95;;;2.47;;
26756;SDS011;23848;49.798;10.228;2024-02-26T01:12:00;3.78;;;2.30;;
26756;SDS011;23848;49.798;10.228;2024-02-26T01:14:29;4.95;;;2.67;;
26756;SDS011;23848;49.798;10.228;2024-02-26T01:16:57;4.93;;;2.72;;
26756;SDS011;23848;49.798;10.228;2024-02-26T01:19:26;3.33;;;2.05;;
26756;SDS011;23848;49.798;10.228;2024-02-26T01:21:54;4.95;;;2.85;;
26756;SDS011;23848;49.798;10.228;2024-02-26T01:24:24;4.13;;;2.38;;
26756;SDS011;23848;49.798;10.228;2024-02-26T01:26:52;4.05;;;2.20;;
26756;SDS011;23848;49.798;10.228;2024-02-26T01:29:20;4.22;;;2.20;;
26756;SDS011;23848;49.798;10.228;2024-02-26T01:31:49;4.68;;;2.40;;
26756;SDS011;23848;49.798;10.228;2024-02-26T01:34:17;4.75;;;2.35;;
26756;SDS011;23848;49.798;10.228;2024-02-26T01:36:46;4.22;;;2.22;;
26756;SDS011;23848;49.798;10.228;2024-02-26T01:39:14;4.25;;;2.30;;
26756;SDS011;23848;49.798;10.228;2024-02-26T01:41:44;3.65;;;2.30;;
26756;SDS011;23848;49.798;10.228;2024-02-26T01:44:12;4.50;;;2.30;;
26756;SDS011;23848;49.798;10.228;2024-02-26T01:46:41;4.07;;;2.30;;
26756;SDS011;23848;49.798;10.228;2024-02-26T01:49:09;3.85;;;2.13;;
26756;SDS011;23848;49.798;10.228;2024-02-26T01:51:40;4.22;;;2.40;;
26756;SDS011;23848;49.798;10.228;2024-02-26T01:54:09;3.63;;;1.90;;
26756;SDS011;23848;49.798;10.228;2024-02-26T01:56:38;4.32;;;2.40;;
26756;SDS011;23848;49.798;10.228;2024-02-26T01:59:09;4.13;;;2.30;;
26756;SDS011;23848;49.798;10.228;2024-02-26T02:01:37;4.35;;;2.20;;
26756;SDS011;23848;49.798;10.228;2024-02-26T02:04:07;7.32;;;4.10;;
26756;SDS011;23848;49.798;10.228;2024-02-26T02:06:35;4.93;;;2.50;;
26756;SDS011;23848;49.798;10.228;2024-02-26T02:09:04;4.57;;;2.38;;
26756;SDS011;23848;49.798;10.228;2024-02-26T02:11:34;5.97;;;2.97;;
26756;SDS011;23848;49.798;10.228;2024-02-26T02:14:02;5.65;;;2.53;;
26756;SDS011;23848;49.798;10.228;2024-02-26T02:16:32;5.25;;;3.13;;
26756;SDS011;23848;49.798;10.228;2024-02-26T02:19:02;6.80;;;3.15;;
26756;SDS011;23848;49.798;10.228;2024-02-26T02:21:32;6.18;;;3.30;;
26756;SDS011;23848;49.798;10.228;2024-02-26T02:24:01;5.57;;;2.85;;
26756;SDS011;23848;49.798;10.228;2024-02-26T02:26:29;5.72;;;3.33;;
26756;SDS011;23848;49.798;10.228;2024-02-26T02:28:57;7.47;;;3.60;;
26756;SDS011;23848;49.798;10.228;2024-02-26T02:31:26;7.18;;;3.85;;
26756;SDS011;23848;49.798;10.228;2024-02-26T02:33:55;6.50;;;4.10;;
26756;SDS011;23848;49.798;10.228;2024-02-26T02:36:24;6.32;;;3.40;;
26756;SDS011;23848;49.798;10.228;2024-02-26T02:38:54;6.90;;;3.47;;
26756;SDS011;23848;49.798;10.228;2024-02-26T02:41:22;7.45;;;4.00;;
26756;SDS011;23848;49.798;10.228;2024-02-26T02:43:52;4.90;;;3.10;;
26756;SDS011;23848;49.798;10.228;2024-02-26T02:46:21;5.68;;;3.88;;
26756;SDS011;23848;49.798;10.228;2024-02-26T02:48:49;5.55;;;3.05;;
26756;SDS011;23848;49.798;10.228;2024-02-26T02:51:17;6.60;;;4.03;;
26756;SDS011;23848;49.798;10.228;2024-02-26T02:53:46;7.10;;;3.70;;
26756;SDS011;23848;49.798;10.228;2024-02-26T02:56:16;8.45;;;4.30;;
26756;SDS011;23848;49.798;10.228;2024-02-26T02:58:44;9.45;;;3.92;;
26756;SDS011;23848;49.798;10.228;2024-02-26T03:01:13;7.07;;;4.03;;
26756;SDS011;23848;49.798;10.228;2024-02-26T03:03:41;7.68;;;3.97;;
26756;SDS011;23848;49.798;10.228;2024-02-26T03:06:09;7.45;;;4.53;;
26756;SDS011;23848;49.798;10.228;2024-02-26T03:08:38;7.53;;;3.90;;
26756;SDS011;23848;49.798;10.228;2024-02-26T03:11:12;7.30;;;4.78;;
26756;SDS011;23848;49.798;10.228;2024-02-26T03:13:42;7.50;;;4.10;;
26756;SDS011;23848;49.798;10.228;2024-02-26T03:16:12;6.72;;;4.35;;
26756;SDS011;23848;49.798;10.228;2024-02-26T03:18:40;6.13;;;3.92;;
26756;SDS011;23848;49.798;10.228;2024-02-26T03:21:09;6.25;;;3.70;;
26756;SDS011;23848;49.798;10.228;2024-02-26T03:23:37;7.15;;;4.47;;
26756;SDS011;23848;49.798;10.228;2024-02-26T03:26:07;10.60;;;5.10;;
26756;SDS011;23848;49.798;10.228;2024-02-26T03:28:40;9.45;;;5.00;;
26756;SDS011;23848;49.798;10.228;2024-02-26T03:31:09;6.07;;;3.92;;
26756;SDS011;23848;49.798;10.228;2024-02-26T03:33:38;6.97;;;3.80;;
26756;SDS011;23848;49.798;10.228;2024-02-26T03:36:07;6.38;;;3.80;;
26756;SDS011;23848;49.798;10.228;2024-02-26T03:38:35;7.45;;;4.00;;
26756;SDS011;23848;49.798;10.228;2024-02-26T03:41:05;6.72;;;3.72;;
26756;SDS011;23848;49.798;10.228;2024-02-26T03:43:34;6.70;;;3.75;;
26756;SDS011;23848;49.798;10.228;2024-02-26T03:46:03;6.63;;;3.50;;
26756;SDS011;23848;49.798;10.228;2024-02-26T03:48:33;5.82;;;3.22;;
26756;SDS011;23848;49.798;10.228;2024-02-26T03:51:01;8.20;;;3.97;;
26756;SDS011;23848;49.798;10.228;2024-02-26T03:53:30;7.28;;;3.75;;
26756;SDS011;23848;49.798;10.228;2024-02-26T03:55:58;6.03;;;3.50;;
26756;SDS011;23848;49.798;10.228;2024-02-26T03:58:30;5.35;;;3.45;;
26756;SDS011;23848;49.798;10.228;2024-02-26T04:00:59;6.97;;;3.58;;
26756;SDS011;23848;49.798;10.228;2024-02-26T04:03:28;7.40;;;3.85;;
26756;SDS011;23848;49.798;10.228;2024-02-26T04:05:57;7.80;;;4.22;;
26756;SDS011;23848;49.798;10.228;2024-02-26T04:08:26;6.50;;;4.05;;
26756;SDS011;23848;49.798;10.228;2024-02-26T04:10:54;7.30;;;4.03;;
26756;SDS011;23848;49.798;10.228;2024-02-26T04:13:23;6.75;;;4.38;;
26756;SDS011;23848;49.798;10.228;2024-02-26T04:15:51;8.63;;;5.18;;
26756;SDS011;23848;49.798;10.228;2024-02-26T04:18:20;10.65;;;4.72;;
26756;SDS011;23848;49.798;10.228;2024-02-26T04:20:48;11.80;;;5.25;;
26756;SDS011;23848;49.798;10.228;2024-02-26T04:23:19;11.45;;;5.53;;
26756;SDS011;23848;49.798;10.228;2024-02-26T04:25:47;11.13;;;5.10;;
26756;SDS011;23848;49.798;10.228;2024-02-26T04:28:16;8.70;;;4.72;;
26756;SDS011;23848;49.798;10.228;2024-02-26T04:30:44;7.90;;;4.95;;
26756;SDS011;23848;49.798;10.228;2024-02-26T04:33:12;19.35;;;9.18;;
26756;SDS011;23848;49.798;10.228;2024-02-26T04:35:41;25.25;;;10.85;;
26756;SDS011;23848;49.798;10.228;2024-02-26T04:38:09;20.23;;;10.23;;
26756;SDS011;23848;49.798;10.228;2024-02-26T04:40:39;11.63;;;6.53;;
26756;SDS011;23848;49.798;10.228;2024-02-26T04:43:07;10.40;;;5.22;;
26756;SDS011;23848;49.798;10.228;2024-02-26T04:45:36;6.97;;;3.97;;
26756;SDS011;23848;49.798;10.228;2024-02-26T04:48:04;8.45;;;4.60;;
26756;SDS011;23848;49.798;10.228;2024-02-26T04:50:33;7.00;;;4.53;;
26756;SDS011;23848;49.798;10.228;2024-02-26T04:53:01;9.88;;;5.85;;
26756;SDS011;23848;49.798;10.228;2024-02-26T04:55:30;9.43;;;5.38;;
26756;SDS011;23848;49.798;10.228;2024-02-26T04:58:00;8.63;;;5.18;;
26756;SDS011;23848;49.798;10.228;2024-02-26T05:00:28;7.72;;;4.32;;
26756;SDS011;23848;49.798;10.228;2024-02-26T05:02:57;8.40;;;4.80;;
26756;SDS011;23848;49.798;10.228;2024-02-26T05:05:25;8.00;;;5.05;;
26756;SDS011;23848;49.798;10.228;2024-02-26T05:07:54;10.65;;;5.13;;
26756;SDS011;23848;49.798;10.228;2024-02-26T05:10:22;9.82;;;5.55;;
26756;SDS011;23848;49.798;10.228;2024-02-26T05:12:52;8.85;;;4.80;;
26756;SDS011;23848;49.798;10.228;2024-02-26T05:15:21;8.35;;;5.00;;
26756;SDS011;23848;49.798;10.228;2024-02-26T05:17:50;10.55;;;5.82;;
26756;SDS011;23848;49.798;10.228;2024-02-26T05:20:19;7.53;;;4.75;;
26756;SDS011;23848;49.798;10.228;2024-02-26T05:22:47;8.27;;;4.75;;
26756;SDS011;23848;49.798;10.228;2024-02-26T05:25:17;8.32;;;4.63;;
26756;SDS011;23848;49.798;10.228;2024-02-26T05:27:45;8.32;;;4.65;;
26756;SDS011;23848;49.798;10.228;2024-02-26T05:30:14;10.15;;;4.38;;
26756;SDS011;23848;49.798;10.228;2024-02-26T05:32:47;8.50;;;4.45;;
26756;SDS011;23848;49.798;10.228;2024-02-26T05:35:15;8.02;;;4.25;;
26756;SDS011;23848;49.798;10.228;2024-02-26T05:37:44;11.02;;;5.60;;
26756;SDS011;23848;49.798;10.228;2024-02-26T05:40:13;9.18;;;4.97;;
26756;SDS011;23848;49.798;10.228;2024-02-26T05:42:47;10.60;;;4.97;;
26756;SDS011;23848;49.798;10.228;2024-02-26T05:45:15;9.52;;;5.55;;
26756;SDS011;23848;49.798;10.228;2024-02-26T05:47:44;8.82;;;5.32;;
26756;SDS011;23848;49.798;10.228;2024-02-26T05:50:14;10.48;;;5.10;;
26756;SDS011;23848;49.798;10.228;2024-02-26T05:52:45;9.68;;;5.80;;
26756;SDS011;23848;49.798;10.228;2024-02-26T05:55:15;7.93;;;4.90;;
26756;SDS011;23848;49.798;10.228;2024-02-26T05:57:47;10.70;;;5.22;;
26756;SDS011;23848;49.798;10.228;2024-02-26T06:00:17;9.60;;;5.57;;
26756;SDS011;23848;49.798;10.228;2024-02-26T06:02:46;8.68;;;4.90;;
26756;SDS011;23848;49.798;10.228;2024-02-26T06:05:15;10.43;;;5.55;;
26756;SDS011;23848;49.798;10.228;2024-02-26T06:07:44;11.38;;;6.07;;
26756;SDS011;23848;49.798;10.228;2024-02-26T06:10:13;10.00;;;6.22;;
26756;SDS011;23848;49.798;10.228;2024-02-26T06:12:41;10.88;;;5.93;;
26756;SDS011;23848;49.798;10.228;2024-02-26T06:15:10;9.70;;;5.18;;
26756;SDS011;23848;49.798;10.228;2024-02-26T06:17:38;7.95;;;5.13;;
26756;SDS011;23848;49.798;10.228;2024-02-26T06:20:07;9.90;;;5.65;;
26756;SDS011;23848;49.798;10.228;2024-02-26T06:22:41;8.60;;;5.30;;
26756;SDS011;23848;49.798;10.228;2024-02-26T06:25:09;9.35;;;5.05;;
26756;SDS011;23848;49.798;10.228;2024-02-26T06:27:41;10.50;;;5.78;;
26756;SDS011;23848;49.798;10.228;2024-02-26T06:30:09;10.85;;;5.50;;
26756;SDS011;23848;49.798;10.228;2024-02-26T06:32:38;9.18;;;5.50;;
26756;SDS011;23848;49.798;10.228;2024-02-26T06:35:07;14.07;;;7.07;;
26756;SDS011;23848;49.798;10.228;2024-02-26T06:37:38;9.02;;;5.30;;
26756;SDS011;23848;49.798;10.228;2024-02-26T06:40:08;8.18;;;4.68;;
26756;SDS011;23848;49.798;10.228;2024-02-26T06:42:37;10.10;;;4.88;;
26756;SDS011;23848;49.798;10.228;2024-02-26T06:45:05;10.45;;;5.63;;
26756;SDS011;23848;49.798;10.228;2024-02-26T06:47:34;9.45;;;4.70;;
26756;SDS011;23848;49.798;10.228;2024-02-26T06:50:03;7.47;;;4.20;;
26756;SDS011;23848;49.798;10.228;2024-02-26T06:52:31;8.63;;;4.90;;
26756;SDS011;23848;49.798;10.228;2024-02-26T06:55:00;6.85;;;4.65;;
26756;SDS011;23848;49.798;10.228;2024-02-26T06:57:30;9.27;;;4.72;;
26756;SDS011;23848;49.798;10.228;2024-02-26T06:59:58;9.80;;;5.78;;
26756;SDS011;23848;49.798;10.228;2024-02-26T07:02:33;10.27;;;5.10;;
26756;SDS011;23848;49.798;10.228;2024-02-26T07:05:05;12.80;;;6.93;;
26756;SDS011;23848;49.798;10.228;2024-02-26T07:07:34;10.93;;;6.22;;
26756;SDS011;23848;49.798;10.228;2024-02-26T07:10:02;10.50;;;5.53;;
26756;SDS011;23848;49.798;10.228;2024-02-26T07:12:33;9.82;;;5.65;;
26756;SDS011;23848;49.798;10.228;2024-02-26T07:15:05;7.32;;;4.63;;
26756;SDS011;23848;49.798;10.228;2024-02-26T07:17:34;7.93;;;4.82;;
26756;SDS011;23848;49.798;10.228;2024-02-26T07:20:03;8.00;;;4.53;;
26756;SDS011;23848;49.798;10.228;2024-02-26T07:22:38;7.60;;;4.47;;
26756;SDS011;23848;49.798;10.228;2024-02-26T07:25:12;7.35;;;4.85;;
26756;SDS011;23848;49.798;10.228;2024-02-26T07:27:56;7.10;;;4.53;;
26756;SDS011;23848;49.798;10.228;2024-02-26T07:30:28;7.85;;;4.38;;
26756;SDS011;23848;49.798;10.228;2024-02-26T07:35:37;7.20;;;4.82;;
26756;SDS011;23848;49.798;10.228;2024-02-26T07:38:08;8.73;;;5.40;;
26756;SDS011;23848;49.798;10.228;2024-02-26T07:40:53;7.53;;;4.30;;
26756;SDS011;23848;49.798;10.228;2024-02-26T07:43:30;9.05;;;5.00;;
26756;SDS011;23848;49.798;10.228;2024-02-26T07:45:58;7.00;;;4.78;;
26756;SDS011;23848;49.798;10.228;2024-02-26T07:48:27;9.32;;;5.20;;
26756;SDS011;23848;49.798;10.228;2024-02-26T07:50:57;8.40;;;4.93;;
26756;SDS011;23848;49.798;10.228;2024-02-26T07:53:26;9.25;;;4.72;;
26756;SDS011;23848;49.798;10.228;2024-02-26T07:55:57;10.20;;;5.97;;
26756;SDS011;23848;49.798;10.228;2024-02-26T07:58:25;13.18;;;6.47;;
26756;SDS011;23848;49.798;10.228;2024-02-26T08:00:55;10.52;;;5.95;;
26756;SDS011;23848;49.798;10.228;2024-02-26T08:03:24;10.70;;;5.90;;
26756;SDS011;23848;49.798;10.228;2024-02-26T08:05:52;11.40;;;5.25;;
26756;SDS011;23848;49.798;10.228;2024-02-26T08:08:22;10.32;;;5.32;;
26756;SDS011;23848;49.798;10.228;2024-02-26T08:10:50;11.00;;;4.20;;
26756;SDS011;23848;49.798;10.228;2024-02-26T08:13:19;7.82;;;5.00;;
26756;SDS011;23848;49.798;10.228;2024-02-26T08:15:49;8.90;;;4.72;;
26756;SDS011;23848;49.798;10.228;2024-02-26T08:18:19;10.23;;;5.75;;
26756;SDS011;23848;49.798;10.228;2024-02-26T08:20:48;8.52;;;4.57;;
26756;SDS011;23848;49.798;10.228;2024-02-26T08:23:21;9.93;;;5.25;;
26756;SDS011;23848;49.798;10.228;2024-02-26T08:25:52;13.55;;;7.18;;
26756;SDS011;23848;49.798;10.228;2024-02-26T08:28:22;12.13;;;5.25;;
26756;SDS011;23848;49.798;10.228;2024-02-26T08:30:55;6.00;;;4.00;;
26756;SDS011;23848;49.798;10.228;2024-02-26T08:33:26;8.85;;;4.82;;
26756;SDS011;23848;49.798;10.228;2024-02-26T08:35:56;7.30;;;4.57;;
26756;SDS011;23848;49.798;10.228;2024-02-26T08:38:29;8.20;;;4.30;;
26756;SDS011;23848;49.798;10.228;2024-02-26T08:40:59;7.25;;;4.05;;
26756;SDS011;23848;49.798;10.228;2024-02-26T08:43:31;9.40;;;5.07;;
26756;SDS011;23848;49.798;10.228;2024-02-26T08:46:03;9.38;;;5.13;;
26756;SDS011;23848;49.798;10.228;2024-02-26T08:48:33;6.38;;;3.97;;
26756;SDS011;23848;49.798;10.228;2024-02-26T08:51:04;7.47;;;4.32;;
26756;SDS011;23848;49.798;10.228;2024-02-26T08:53:33;9.75;;;4.93;;
26756;SDS011;23848;49.798;10.228;2024-02-26T08:56:09;9.05;;;5.25;;
26756;SDS011;23848;49.798;10.228;2024-02-26T08:58:44;7.20;;;3.50;;
26756;SDS011;23848;49.798;10.228;2024-02-26T09:01:15;6.57;;;4.00;;
26756;SDS011;23848;49.798;10.228;2024-02-26T09:03:45;5.18;;;3.13;;
26756;SDS011;23848;49.798;10.228;2024-02-26T09:06:22;7.00;;;4.18;;
26756;SDS011;23848;49.798;10.228;2024-02-26T09:08:52;7.63;;;4.25;;
26756;SDS011;23848;49.798;10.228;2024-02-26T09:11:24;7.57;;;4.10;;
26756;SDS011;23848;49.798;10.228;2024-02-26T09:13:53;7.18;;;4.10;;
26756;SDS011;23848;49.798;10.228;2024-02-26T09:16:21;7.20;;;4.20;;
26756;SDS011;23848;49.798;10.228;2024-02-26T09:18:53;7.53;;;4.05;;
26756;SDS011;23848;49.798;10.228;2024-02-26T09:21:22;6.40;;;4.35;;
26756;SDS011;23848;49.798;10.228;2024-02-26T09:23:53;7.30;;;4.43;;
26756;SDS011;23848;49.798;10.228;2024-02-26T09:26:23;8.20;;;3.70;;
26756;SDS011;23848;49.798;10.228;2024-02-26T09:28:54;6.30;;;4.20;;
26756;SDS011;23848;49.798;10.228;2024-02-26T09:31:25;7.40;;;4.15;;
26756;SDS011;23848;49.798;10.228;2024-02-26T09:33:57;5.65;;;3.55;;
26756;SDS011;23848;49.798;10.228;2024-02-26T09:36:39;5.57;;;3.38;;
26756;SDS011;23848;49.798;10.228;2024-02-26T09:39:08;7.20;;;3.65;;
26756;SDS011;23848;49.798;10.228;2024-02-26T09:41:38;6.10;;;3.03;;
26756;SDS011;23848;49.798;10.228;2024-02-26T09:44:08;5.22;;;2.97;;
26756;SDS011;23848;49.798;10.228;2024-02-26T09:46:37;7.00;;;3.72;;
26756;SDS011;23848;49.798;10.228;2024-02-26T09:49:11;4.20;;;2.80;;
26756;SDS011;23848;49.798;10.228;2024-02-26T09:51:44;7.25;;;3.33;;
26756;SDS011;23848;49.798;10.228;2024-02-26T09:54:14;5.18;;;2.95;;
26756;SDS011;23848;49.798;10.228;2024-02-26T09:56:49;5.20;;;2.72;;
26756;SDS011;23848;49.798;10.228;2024-02-26T09:59:29;4.82;;;2.35;;
26756;SDS011;23848;49.798;10.228;2024-02-26T10:01:58;4.05;;;2.40;;
26756;SDS011;23848;49.798;10.228;2024-02-26T10:04:34;5.25;;;2.20;;
26756;SDS011;23848;49.798;10.228;2024-02-26T10:07:04;5.10;;;2.70;;
26756;SDS011;23848;49.798;10.228;2024-02-26T10:09:36;3.88;;;2.60;;
26756;SDS011;23848;49.798;10.228;2024-02-26T10:12:08;4.18;;;2.17;;
26756;SDS011;23848;49.798;10.228;2024-02-26T10:14:37;5.53;;;2.92;;
26756;SDS011;23848;49.798;10.228;2024-02-26T10:17:11;4.32;;;2.20;;
26756;SDS011;23848;49.798;10.228;2024-02-26T10:19:43;3.67;;;2.53;;
26756;SDS011;23848;49.798;10.228;2024-02-26T10:22:26;6.47;;;2.65;;
26756;SDS011;23848;49.798;10.228;2024-02-26T10:25:07;5.32;;;2.67;;
26756;SDS011;23848;49.798;10.228;2024-02-26T10:27:43;5.43;;;2.55;;
26756;SDS011;23848;49.798;10.228;2024-02-26T10:30:29;5.47;;;2.55;;
26756;SDS011;23848;49.798;10.228;2024-02-26T10:33:17;5.65;;;2.17;;
26756;SDS011;23848;49.798;10.228;2024-02-26T10:36:11;4.82;;;2.47;;
26756;SDS011;23848;49.798;10.228;2024-02-26T10:38:47;5.25;;;3.47;;
26756;SDS011;23848;49.798;10.228;2024-02-26T10:41:32;4.07;;;2.50;;
26756;SDS011;23848;49.798;10.228;2024-02-26T10:44:18;4.25;;;2.80;;
26756;SDS011;23848;49.798;10.228;2024-02-26T10:47:03;3.65;;;2.30;;
26756;SDS011;23848;49.798;10.228;2024-02-26T10:49:33;4.43;;;2.65;;
26756;SDS011;23848;49.798;10.228;2024-02-26T10:52:43;3.40;;;2.28;;
26756;SDS011;23848;49.798;10.228;2024-02-26T10:55:21;4.47;;;2.17;;
26756;SDS011;23848;49.798;10.228;2024-02-26T10:58:19;5.63;;;2.50;;
26756;SDS011;23848;49.798;10.228;2024-02-26T11:01:03;4.53;;;2.35;;
26756;SDS011;23848;49.798;10.228;2024-02-26T11:04:05;3.97;;;2.10;;
26756;SDS011;23848;49.798;10.228;2024-02-26T11:07:15;3.60;;;2.38;;
26756;SDS011;23848;49.798;10.228;2024-02-26T11:10:20;3.80;;;2.25;;
26756;SDS011;23848;49.798;10.228;2024-02-26T11:13:10;4.53;;;2.30;;
26756;SDS011;23848;49.798;10.228;2024-02-26T11:15:54;3.75;;;2.05;;
26756;SDS011;23848;49.798;10.228;2024-02-26T11:18:42;3.38;;;2.03;;
26756;SDS011;23848;49.798;10.228;2024-02-26T11:21:41;4.72;;;2.78;;
26756;SDS011;23848;49.798;10.228;2024-02-26T11:24:34;3.88;;;2.15;;
26756;SDS011;23848;49.798;10.228;2024-02-26T11:30:58;4.82;;;2.28;;
26756;SDS011;23848;49.798;10.228;2024-02-26T11:33:40;3.80;;;2.17;;
26756;SDS011;23848;49.798;10.228;2024-02-26T11:36:12;5.03;;;2.25;;
26756;SDS011;23848;49.798;10.228;2024-02-26T11:38:54;5.03;;;2.10;;
26756;SDS011;23848;49.798;10.228;2024-02-26T11:41:42;4.10;;;2.20;;
26756;SDS011;23848;49.798;10.228;2024-02-26T11:44:29;4.43;;;2.50;;
26756;SDS011;23848;49.798;10.228;2024-02-26T11:47:26;3.92;;;2.33;;
26756;SDS011;23848;49.798;10.228;2024-02-26T11:53:45;4.72;;;2.45;;
26756;SDS011;23848;49.798;10.228;2024-02-26T11:56:57;5.10;;;2.72;;
26756;SDS011;23848;49.798;10.228;2024-02-26T12:00:10;4.80;;;2.80;;
26756;SDS011;23848;49.798;10.228;2024-02-26T12:02:57;4.10;;;2.20;;
26756;SDS011;23848;49.798;10.228;2024-02-26T12:05:51;3.63;;;2.00;;
26756;SDS011;23848;49.798;10.228;2024-02-26T12:08:22;5.10;;;2.53;;
26756;SDS011;23848;49.798;10.228;2024-02-26T12:13:39;4.53;;;2.53;;
26756;SDS011;23848;49.798;10.228;2024-02-26T12:16:36;4.15;;;2.45;;
26756;SDS011;23848;49.798;10.228;2024-02-26T12:22:18;3.40;;;1.70;;
26756;SDS011;23848;49.798;10.228;2024-02-26T12:25:30;5.13;;;2.60;;
26756;SDS011;23848;49.798;10.228;2024-02-26T12:28:55;4.15;;;2.17;;
26756;SDS011;23848;49.798;10.228;2024-02-26T12:31:58;3.92;;;2.08;;
26756;SDS011;23848;49.798;10.228;2024-02-26T12:38:14;3.17;;;2.03;;
26756;SDS011;23848;49.798;10.228;2024-02-26T12:59:12;4.88;;;2.20;;
26756;SDS011;23848;49.798;10.228;2024-02-26T13:02:21;5.10;;;2.13;;
26756;SDS011;23848;49.798;10.228;2024-02-26T13:05:11;3.55;;;1.70;;
26756;SDS011;23848;49.798;10.228;2024-02-26T13:21:25;3.30;;;2.03;;
26756;SDS011;23848;49.798;10.228;2024-02-26T13:32:40;4.10;;;2.20;;
26756;SDS011;23848;49.798;10.228;2024-02-26T13:53:24;3.22;;;1.80;;
26756;SDS011;23848;49.798;10.228;2024-02-26T13:56:00;4.03;;;2.00;;
26756;SDS011;23848;49.798;10.228;2024-02-26T13:58:58;3.72;;;1.90;;
26756;SDS011;23848;49.798;10.228;2024-02-26T14:01:55;4.82;;;2.33;;
26756;SDS011;23848;49.798;10.228;2024-02-26T14:37:04;5.20;;;2.97;;
26756;SDS011;23848;49.798;10.228;2024-02-26T14:39:43;3.78;;;2.10;;
26756;SDS011;23848;49.798;10.228;2024-02-26T14:42:22;4.13;;;1.98;;
26756;SDS011;23848;49.798;10.228;2024-02-26T14:45:03;3.40;;;1.63;;
26756;SDS011;23848;49.798;10.228;2024-02-26T14:53:42;2.63;;;1.88;;
26756;SDS011;23848;49.798;10.228;2024-02-26T14:56:25;4.05;;;2.40;;
26756;SDS011;23848;49.798;10.228;2024-02-26T14:59:20;3.50;;;2.10;;
26756;SDS011;23848;49.798;10.228;2024-02-26T15:01:58;5.55;;;2.15;;
26756;SDS011;23848;49.798;10.228;2024-02-26T15:04:34;4.50;;;2.10;;
26756;SDS011;23848;49.798;10.228;2024-02-26T15:07:12;3.97;;;2.40;;
26756;SDS011;23848;49.798;10.228;2024-02-26T15:10:06;4.63;;;2.65;;
26756;SDS011;23848;49.798;10.228;2024-02-26T15:12:41;4.63;;;2.80;;
26756;SDS011;23848;49.798;10.228;2024-02-26T15:15:14;4.78;;;2.25;;
26756;SDS011;23848;49.798;10.228;2024-02-26T15:17:54;5.53;;;2.97;;
26756;SDS011;23848;49.798;10.228;2024-02-26T15:20:43;4.68;;;2.85;;
26756;SDS011;23848;49.798;10.228;2024-02-26T15:23:24;4.00;;;2.60;;
26756;SDS011;23848;49.798;10.228;2024-02-26T15:29:02;4.55;;;2.60;;
26756;SDS011;23848;49.798;10.228;2024-02-26T15:31:36;3.63;;;2.20;;
26756;SDS011;23848;49.798;10.228;2024-02-26T15:34:12;3.28;;;1.92;;
26756;SDS011;23848;49.798;10.228;2024-02-26T15:37:19;4.03;;;2.00;;
26756;SDS011;23848;49.798;10.228;2024-02-26T15:42:47;3.53;;;2.20;;
26756;SDS011;23848;49.798;10.228;2024-02-26T15:45:29;4.05;;;2.35;;
26756;SDS011;23848;49.798;10.228;2024-02-26T15:48:18;3.30;;;1.73;;
26756;SDS011;23848;49.798;10.228;2024-02-26T15:50:56;3.53;;;1.85;;
26756;SDS011;23848;49.798;10.228;2024-02-26T15:53:39;3.97;;;2.10;;
26756;SDS011;23848;49.798;10.228;2024-02-26T15:56:22;4.85;;;2.38;;
26756;SDS011;23848;49.798;10.228;2024-02-26T16:05:58;4.28;;;2.67;;
26756;SDS011;23848;49.798;10.228;2024-02-26T16:08:43;4.47;;;2.70;;
26756;SDS011;23848;49.798;10.228;2024-02-26T16:11:24;4.07;;;2.72;;
26756;SDS011;23848;49.798;10.228;2024-02-26T16:13:59;4.10;;;2.50;;
26756;SDS011;23848;49.798;10.228;2024-02-26T16:16:59;5.97;;;2.90;;
26756;SDS011;23848;49.798;10.228;2024-02-26T16:19:54;4.25;;;2.72;;
26756;SDS011;23848;49.798;10.228;2024-02-26T16:22:59;4.70;;;3.00;;
26756;SDS011;23848;49.798;10.228;2024-02-26T16:25:51;4.72;;;3.22;;
26756;SDS011;23848;49.798;10.228;2024-02-26T16:28:37;5.47;;;3.35;;
26756;SDS011;23848;49.798;10.228;2024-02-26T16:31:30;5.10;;;3.08;;
26756;SDS011;23848;49.798;10.228;2024-02-26T16:44:45;7.28;;;4.18;;
26756;SDS011;23848;49.798;10.228;2024-02-26T16:47:16;8.95;;;4.93;;
26756;SDS011;23848;49.798;10.228;2024-02-26T16:49:47;7.88;;;5.05;;
26756;SDS011;23848;49.798;10.228;2024-02-26T16:52:19;9.63;;;4.55;;
26756;SDS011;23848;49.798;10.228;2024-02-26T16:55:05;15.23;;;6.75;;
26756;SDS011;23848;49.798;10.228;2024-02-26T16:57:45;8.95;;;5.13;;
26756;SDS011;23848;49.798;10.228;2024-02-26T17:00:16;7.73;;;4.67;;
26756;SDS011;23848;49.798;10.228;2024-02-26T17:02:53;8.43;;;5.05;;
26756;SDS011;23848;49.798;10.228;2024-02-26T17:05:25;7.00;;;4.32;;
26756;SDS011;23848;49.798;10.228;2024-02-26T17:08:02;6.18;;;4.28;;
26756;SDS011;23848;49.798;10.228;2024-02-26T17:10:35;7.07;;;4.35;;
26756;SDS011;23848;49.798;10.228;2024-02-26T17:13:06;10.13;;;5.32;;
26756;SDS011;23848;49.798;10.228;2024-02-26T17:15:38;7.88;;;4.75;;
26756;SDS011;23848;49.798;10.228;2024-02-26T17:18:15;6.85;;;4.50;;
26756;SDS011;23848;49.798;10.228;2024-02-26T17:20:50;4.57;;;3.00;;
26756;SDS011;23848;49.798;10.228;2024-02-26T17:23:21;6.68;;;4.00;;
26756;SDS011;23848;49.798;10.228;2024-02-26T17:25:53;7.53;;;4.82;;
26756;SDS011;23848;49.798;10.228;2024-02-26T17:28:24;9.98;;;5.80;;
26756;SDS011;23848;49.798;10.228;2024-02-26T17:30:57;9.13;;;5.60;;
26756;SDS011;23848;49.798;10.228;2024-02-26T17:33:28;7.30;;;4.72;;
26756;SDS011;23848;49.798;10.228;2024-02-26T17:36:01;8.75;;;5.88;;